Tinker Air Force Base
KTIK : rendu visible

Aérodrome :











RETROUVEZ-NOUS SUR...

 
LOGIN :

S'inscrire | Disclaimer

   EN    FR    IT 

 









Légende :    VFR   VFR Marginal   IFR   IFR Intensif   IFR Très Intensif
Visi : 
Plafond : 
>= 8 km
>= 3000ft
5 à 8 km
1000 à 3000 ft
1500m à 5 km
500 à 1000 ft
800 à 1500m
200 à 500 ft
< 800m
< 200 ft
Symboles :   Orages  Brouillard  Fortes neiges  Fortes précipitations  Vent > 20 kt






- Altitude de l'aérodrome : 1291 ft


KTIK - Tinker Air Force Base

DERNIER METAR :
  • 200156Z AUTO 05008KT 10SM CLR 04/M05 A3051 RMK AO2 SLP349 T00391046 $

METARs EXPIRÉS :
  • 200056Z AUTO 06004KT 10SM CLR 06/M05 A3050 RMK AO2 SLP345 T00581055 $
  • 192356Z AUTO 04004KT 10SM CLR 06/M05 A3048 RMK AO2 SLP338 T00641053 10106 20064 55002 $

TAF TAF KTIK
Valide du 20 à 02h jusqu'au 21 à 08h UTC


200200Z 2002/2108 VRB06KT 9999 SKC QNH3046INS TX06/2020Z TNM02/2012Z



MET'MAP, la Météo Aéronautique d'un coup d'oeil ! - Copyright ORBIFLY Décembre 2007 - Disclaimer

ORBIFLY MET'MAP TEAM :

Programmation & Développement : Alexandra Zaïnal
Sur une idée originale de : Baudouin d'Aumeries
Assistance à la programmation : Marc-Olivier Méhu
Soutien technique & logistique : Manuel Goepfert

Contact : metmap@orbifly.com




SOURCES & CREDITS :

   NOAA       Earth
Advisory